Update: 28-May-2022 10:31Z
38°C
WEATHER FORECAST DUBAI WORLD CENTRAL
 
Saturday, May 28, 2022 (10:33 UTC) 10
Al Maktoum International Airport
Last Updated: 28-May-2022 (10:31Z)
Wind Dir/Speed: WNW at 10 kt
Temperature: 37.6°C
Rel. Humidity: 32 %
Pressure: 1002.6 hPa
Visibility: 6000 m
  • METAR OMDW 281030Z 29009KT 260V330 CAVOK 38/18 Q1002 NOSIG
DWC AIRPORT 5 DAY OUTLOOK:

DWC AIRPORT WEATHER FORECAST FOR 30 HOUR:
DWC TAF:
TAF OMDW 280500Z 2806/2912 19008KT 8000 NSC
BECMG 2806/2808 32015KT
BECMG 2816/2818 18005KT
BECMG 2908/2910 33013KT=
VALID FROM:
2022-05-28 06:00Z
VALID TILL:
2022-05-29 12:00Z
SURFACE WIND:
S'LY 08KT

BECOMING NW'LY 15KT FROM 0600Z-0800Z TODAY

BECOMING S'LY 05KT FROM 1600Z-1800Z TODAY

BECOMING NW'LY 13KT FROM 0800Z-1000Z SUNDAY.
VISIBILITY:
07-10 KM.
WEATHER:
FINE.
CLOUD:
NIL SIGNIFICANT.
TEMPERATURE:
MAX TEMPERATURE 39°C AROUND 0900Z TODAY

MIN TEMPERATURE 26°C AROUND 0200Z SUNDAY

MAX TEMPERATURE 42°C AROUND 0900Z SUNDAY.
HUMIDITY:
MIN HUMIDITY 20% AROUND 0900Z TODAY

MAX HUMIDITY 70% AROUND 0200Z SUNDAY

MIN HUMIDITY 20% AROUND 0900Z SUNDAY.
WIND SHEAR:
NIL SIGNIFICANT.
TEMPERATURE INVERSION:
RISK OF A 10-12°C SURFACE TEMPERATURE INVERSION BETWEEN 2200Z TODAY AND 0330Z SUNDAY.
COMMENTS:
NIL.
28/05/2022